createdAt,value
2018-03-14T00:01:33.340Z,11.63
2018-03-14T00:04:01.436Z,11.47
2018-03-14T00:06:29.757Z,11.40
2018-03-14T00:08:57.712Z,11.60
2018-03-14T00:11:25.803Z,12.47
2018-03-14T00:13:53.690Z,12.87
2018-03-14T00:16:21.862Z,12.83
2018-03-14T00:18:49.956Z,12.30
2018-03-14T00:21:17.872Z,12.87
2018-03-14T00:23:46.309Z,13.07
2018-03-14T00:26:14.683Z,9.57
2018-03-14T00:28:42.780Z,8.43
2018-03-14T00:31:10.653Z,8.60
2018-03-14T00:33:38.557Z,9.03
2018-03-14T00:36:06.649Z,9.10
2018-03-14T00:38:34.747Z,7.93
2018-03-14T00:41:02.832Z,8.67
2018-03-14T00:43:30.932Z,8.30
2018-03-14T00:45:58.807Z,8.60
2018-03-14T00:48:26.702Z,8.67
2018-03-14T00:50:54.786Z,8.40
2018-03-14T00:53:22.884Z,7.43
2018-03-14T00:55:50.951Z,7.73
2018-03-14T00:58:19.052Z,7.67
2018-03-14T01:00:47.376Z,7.57
2018-03-14T01:03:15.276Z,8.73
2018-03-14T01:05:43.152Z,8.90
2018-03-14T01:08:11.252Z,9.40
2018-03-14T01:10:39.336Z,10.10
2018-03-14T01:13:07.242Z,9.67
2018-03-14T01:15:35.136Z,10.40
2018-03-14T01:18:03.054Z,10.93
2018-03-14T01:20:30.937Z,10.57
2018-03-14T01:22:59.046Z,11.00
2018-03-14T01:25:27.139Z,9.60
2018-03-14T01:27:55.240Z,9.10
2018-03-14T01:30:23.407Z,7.47
2018-03-14T01:32:51.302Z,7.70
2018-03-14T01:35:19.752Z,8.23
2018-03-14T01:37:47.847Z,7.30
2018-03-14T01:40:15.943Z,7.43
2018-03-14T01:42:43.844Z,6.80
2018-03-14T01:45:11.719Z,6.80
2018-03-14T01:47:39.625Z,6.50
2018-03-14T01:50:07.518Z,6.40
2018-03-14T01:52:35.428Z,6.50
2018-03-14T01:55:03.528Z,7.20
2018-03-14T01:57:31.657Z,6.70
2018-03-14T01:59:59.532Z,7.10
2018-03-14T02:02:27.435Z,7.80
2018-03-14T02:04:55.594Z,7.97
2018-03-14T02:07:23.699Z,7.60
2018-03-14T02:09:51.577Z,7.93
2018-03-14T02:12:19.479Z,9.13
2018-03-14T02:14:47.559Z,9.03
2018-03-14T02:17:15.459Z,9.40
2018-03-14T02:19:43.399Z,9.47
2018-03-14T02:27:41.732Z,10.40
2018-03-14T02:30:09.624Z,10.63
2018-03-14T03:00:06.279Z,11.13
2018-03-14T03:02:34.270Z,11.53
2018-03-14T03:05:02.234Z,11.27
2018-03-14T03:07:30.280Z,12.07
2018-03-14T03:09:58.964Z,12.07
2018-03-14T03:12:26.882Z,11.37
2018-03-14T03:14:54.774Z,11.80
2018-03-14T03:17:22.777Z,13.27
2018-03-14T03:22:36.133Z,12.37
2018-03-14T03:25:04.024Z,12.80
2018-03-14T03:27:31.926Z,13.33
2018-03-14T03:29:59.820Z,11.87
2018-03-14T03:32:27.731Z,11.10
2018-03-14T03:34:55.662Z,12.20
2018-03-14T03:37:23.562Z,12.30
2018-03-14T03:39:51.727Z,11.37
2018-03-14T03:42:19.636Z,12.57
2018-03-14T03:44:47.519Z,12.63
2018-03-14T03:47:15.435Z,12.93
2018-03-14T03:49:43.327Z,12.03
2018-03-14T03:52:11.232Z,12.37
2018-03-14T03:54:39.122Z,12.37
2018-03-14T03:57:07.019Z,14.83
2018-03-14T03:59:34.909Z,14.37
2018-03-14T04:02:02.843Z,13.50
2018-03-14T04:04:30.721Z,14.83
2018-03-14T04:06:58.831Z,13.17
2018-03-14T04:09:26.724Z,15.00
2018-03-14T04:11:54.649Z,14.13
2018-03-14T04:14:22.343Z,14.87
2018-03-14T04:16:50.247Z,14.60
2018-03-14T04:19:18.152Z,15.23
2018-03-14T04:21:46.381Z,14.37
2018-03-14T04:24:14.548Z,15.60
2018-03-14T04:26:42.675Z,13.90
2018-03-14T04:29:10.899Z,14.80
2018-03-14T04:31:39.072Z,16.67
2018-03-14T04:34:06.983Z,17.67
2018-03-14T04:36:34.872Z,16.10
2018-03-14T04:39:02.776Z,16.23
2018-03-14T04:41:30.667Z,16.00
2018-03-14T04:43:58.583Z,17.07
2018-03-14T04:46:26.482Z,17.53
2018-03-14T04:48:55.216Z,16.67
2018-03-14T04:51:23.206Z,18.67
2018-03-14T04:53:51.105Z,15.27
2018-03-14T04:56:18.981Z,15.37
2018-03-14T04:58:46.883Z,15.50
2018-03-14T05:01:15.009Z,16.83
2018-03-14T05:03:43.184Z,15.40
2018-03-14T05:06:11.355Z,15.00
2018-03-14T05:08:39.262Z,15.73
2018-03-14T05:11:07.144Z,15.93
2018-03-14T05:13:35.049Z,17.07
2018-03-14T05:16:02.959Z,15.80
2018-03-14T05:18:30.901Z,15.33
2018-03-14T05:20:59.068Z,16.27
2018-03-14T05:23:26.971Z,15.47
2018-03-14T05:25:54.863Z,16.30
2018-03-14T05:28:22.767Z,15.20
2018-03-14T05:30:50.681Z,16.20
2018-03-14T05:33:18.589Z,15.60
2018-03-14T05:35:46.775Z,16.83
2018-03-14T05:38:14.954Z,16.97
2018-03-14T05:40:42.844Z,16.17
2018-03-14T05:43:10.755Z,18.07
2018-03-14T05:45:38.726Z,15.53
2018-03-14T05:48:06.661Z,14.87
2018-03-14T05:50:34.793Z,15.33
2018-03-14T05:53:02.695Z,15.20
2018-03-14T05:55:30.596Z,14.97
2018-03-14T05:57:58.638Z,15.27
2018-03-14T06:00:26.538Z,16.17
2018-03-14T06:02:54.436Z,15.90
2018-03-14T06:05:22.422Z,16.07
2018-03-14T06:07:50.512Z,14.07
2018-03-14T06:10:18.404Z,13.77
2018-03-14T06:12:46.346Z,15.37
2018-03-14T06:15:14.244Z,14.13
2018-03-14T06:17:42.161Z,12.90
2018-03-14T06:20:10.047Z,12.83
2018-03-14T06:22:37.967Z,12.03
2018-03-14T06:25:06.062Z,12.27
2018-03-14T06:27:34.225Z,13.23
2018-03-14T06:30:02.221Z,13.43
2018-03-14T06:32:30.246Z,13.50
2018-03-14T06:34:58.208Z,13.57
2018-03-14T06:37:26.108Z,12.90
2018-03-14T06:39:54.008Z,12.30
2018-03-14T06:42:21.911Z,12.87
2018-03-14T06:44:49.799Z,13.27
2018-03-14T06:47:17.773Z,12.33
2018-03-14T06:49:45.672Z,12.77
2018-03-14T06:52:13.584Z,12.57
2018-03-14T06:54:41.688Z,13.33
2018-03-14T06:57:09.620Z,12.83
2018-03-14T06:59:43.081Z,12.67
2018-03-14T07:02:16.700Z,12.77
2018-03-14T07:04:59.933Z,12.97
2018-03-14T07:07:27.854Z,12.80
2018-03-14T07:09:55.744Z,13.00
2018-03-14T07:12:23.660Z,12.73
2018-03-14T07:14:51.539Z,13.40
2018-03-14T07:17:19.451Z,13.20
2018-03-14T07:19:47.344Z,14.73
2018-03-14T07:22:15.259Z,19.13
2018-03-14T07:24:43.171Z,24.60
2018-03-14T07:27:11.076Z,23.77
2018-03-14T07:29:39.059Z,25.70
2018-03-14T07:32:07.188Z,17.80
2018-03-14T07:34:35.091Z,14.73
2018-03-14T07:37:03.034Z,14.80
2018-03-14T07:39:30.918Z,11.83
2018-03-14T07:41:58.837Z,11.63
2018-03-14T07:44:26.752Z,14.67
2018-03-14T07:46:54.683Z,12.40
2018-03-14T07:49:22.628Z,13.30
2018-03-14T07:51:50.531Z,13.67
2018-03-14T07:54:18.440Z,15.23
2018-03-14T07:56:46.344Z,13.30
2018-03-14T07:59:14.570Z,13.40
2018-03-14T08:01:42.476Z,13.77
2018-03-14T08:04:10.368Z,14.73
2018-03-14T08:06:38.287Z,19.07
2018-03-14T08:09:06.214Z,14.50
2018-03-14T08:11:34.147Z,15.97
2018-03-14T08:14:02.073Z,15.03
2018-03-14T08:16:30.563Z,17.33
2018-03-14T08:18:58.444Z,14.43
2018-03-14T08:21:26.359Z,14.57
2018-03-14T08:23:54.445Z,17.23
2018-03-14T08:26:22.364Z,13.23
2018-03-14T08:28:50.264Z,15.43
2018-03-14T08:31:18.475Z,17.17
2018-03-14T08:33:46.377Z,14.60
2018-03-14T08:36:14.612Z,14.03
2018-03-14T08:38:42.557Z,20.37
2018-03-14T08:41:10.464Z,16.90
2018-03-14T08:43:38.355Z,15.93
2018-03-14T08:46:06.264Z,19.80
2018-03-14T08:48:34.148Z,15.83
2018-03-14T08:51:02.059Z,16.20
2018-03-14T08:53:29.950Z,15.60
2018-03-14T08:55:57.855Z,15.17
2018-03-14T08:58:25.751Z,14.83
2018-03-14T09:00:53.657Z,15.33
2018-03-14T09:03:21.545Z,13.77
2018-03-14T09:05:49.447Z,14.37
2018-03-14T09:08:17.392Z,14.17
2018-03-14T09:10:45.464Z,16.00
2018-03-14T09:13:13.374Z,13.63
2018-03-14T09:15:41.281Z,15.50
2018-03-14T09:18:09.171Z,19.23
2018-03-14T09:20:37.539Z,15.37
2018-03-14T09:23:05.424Z,15.97
2018-03-14T09:25:33.336Z,15.40
2018-03-14T09:28:01.233Z,15.77
2018-03-14T09:30:29.417Z,12.97
2018-03-14T09:32:57.310Z,12.27
2018-03-14T09:35:25.058Z,11.73
2018-03-14T09:37:52.948Z,12.77
2018-03-14T09:40:20.871Z,12.30
2018-03-14T09:42:48.795Z,11.60
2018-03-14T09:45:16.773Z,9.77
2018-03-14T09:47:44.820Z,15.27
2018-03-14T09:50:12.725Z,11.43
2018-03-14T09:52:40.638Z,11.20
2018-03-14T09:55:08.609Z,11.17
2018-03-14T09:57:36.828Z,11.67
2018-03-14T10:00:04.410Z,11.37
2018-03-14T10:02:32.353Z,11.93
2018-03-14T10:05:00.257Z,11.50
2018-03-14T10:07:28.193Z,11.40
2018-03-14T10:09:55.924Z,12.00
2018-03-14T10:12:23.829Z,11.97
2018-03-14T10:14:51.729Z,12.77
2018-03-14T10:17:19.631Z,14.37
2018-03-14T10:19:47.536Z,13.67
2018-03-14T10:22:15.435Z,14.67
2018-03-14T10:24:43.601Z,12.60
2018-03-14T10:27:11.487Z,14.20
2018-03-14T10:29:39.745Z,13.57
2018-03-14T10:32:07.632Z,13.97
2018-03-14T10:34:35.657Z,14.83
2018-03-14T10:37:03.543Z,14.37
2018-03-14T10:39:31.457Z,14.37
2018-03-14T10:41:59.340Z,15.40
2018-03-14T10:44:27.563Z,13.93
2018-03-14T10:46:55.440Z,13.80
2018-03-14T10:49:23.340Z,15.03
2018-03-14T10:51:51.227Z,12.77
2018-03-14T10:54:19.442Z,12.00
2018-03-14T10:56:47.375Z,12.83
2018-03-14T10:59:15.281Z,14.00
2018-03-14T11:01:47.207Z,13.13
2018-03-14T11:04:15.106Z,12.17
2018-03-14T11:06:42.998Z,12.77
2018-03-14T11:09:10.897Z,11.80
2018-03-14T11:11:38.772Z,10.20
2018-03-14T11:14:06.672Z,10.73
2018-03-14T11:16:34.591Z,10.63
2018-03-14T11:19:02.493Z,10.20
2018-03-14T11:21:30.383Z,9.77
2018-03-14T11:23:58.274Z,8.57
2018-03-14T11:26:26.408Z,8.77
2018-03-14T11:28:54.290Z,8.57
2018-03-14T11:31:22.456Z,7.93
2018-03-14T11:33:50.615Z,8.13
2018-03-14T11:36:18.803Z,7.63
2018-03-14T11:38:46.968Z,7.57
2018-03-14T11:41:14.871Z,7.90
2018-03-14T11:43:42.772Z,6.87
2018-03-14T11:46:10.649Z,7.20
2018-03-14T11:48:38.571Z,7.20
2018-03-14T11:51:06.459Z,7.17
2018-03-14T11:53:34.352Z,7.77
2018-03-14T11:56:02.246Z,8.77
2018-03-14T11:58:30.179Z,9.07
2018-03-14T12:00:58.459Z,8.50
2018-03-14T12:03:27.293Z,7.00
2018-03-14T12:05:55.194Z,6.63
2018-03-14T12:08:23.065Z,6.93
2018-03-14T12:10:50.959Z,7.60
2018-03-14T12:13:19.153Z,7.93
2018-03-14T12:15:47.624Z,7.60
2018-03-14T12:18:15.379Z,8.50
2018-03-14T12:20:43.286Z,8.27
2018-03-14T12:23:11.432Z,7.47
2018-03-14T12:25:39.353Z,7.07
2018-03-14T12:28:07.230Z,7.43
2018-03-14T12:30:35.100Z,8.13
2018-03-14T12:33:02.988Z,7.57
2018-03-14T12:35:30.881Z,6.43
2018-03-14T12:37:58.765Z,7.47
2018-03-14T12:40:26.645Z,6.23
2018-03-14T12:42:54.525Z,5.70
2018-03-14T12:45:22.104Z,5.90
2018-03-14T12:47:49.979Z,5.87
2018-03-14T12:50:17.880Z,5.97
2018-03-14T12:52:45.748Z,6.60
2018-03-14T12:55:13.647Z,6.47
2018-03-14T12:57:41.615Z,6.17
2018-03-14T13:00:09.324Z,5.63
2018-03-14T13:02:37.212Z,5.73
2018-03-14T13:05:05.083Z,6.00
2018-03-14T13:07:32.965Z,6.50
2018-03-14T13:10:01.091Z,5.57
2018-03-14T13:12:28.964Z,6.60
2018-03-14T13:14:56.869Z,6.67
2018-03-14T13:17:24.744Z,6.60
2018-03-14T13:19:52.642Z,6.70
2018-03-14T13:22:20.516Z,6.93
2018-03-14T13:24:48.818Z,7.27
2018-03-14T13:27:16.725Z,6.70
2018-03-14T13:29:44.666Z,6.63
2018-03-14T13:32:12.560Z,7.00
2018-03-14T13:34:40.429Z,6.67
2018-03-14T13:37:08.647Z,7.40
2018-03-14T13:39:36.540Z,7.17
2018-03-14T13:42:04.415Z,7.23
2018-03-14T13:44:32.306Z,6.97
2018-03-14T13:47:00.189Z,10.47
2018-03-14T13:49:28.388Z,7.10
2018-03-14T13:51:56.280Z,7.53
2018-03-14T13:54:24.168Z,9.37
2018-03-14T13:56:52.300Z,6.90
2018-03-14T13:59:20.181Z,7.83
2018-03-14T14:01:48.088Z,9.37
2018-03-14T14:04:17.050Z,6.83
2018-03-14T14:06:44.958Z,8.20
2018-03-14T14:09:12.817Z,7.93
2018-03-14T14:11:40.723Z,7.50
2018-03-14T14:14:08.596Z,8.63
2018-03-14T14:16:36.483Z,8.30
2018-03-14T14:19:05.448Z,7.27
2018-03-14T14:21:33.314Z,6.90
2018-03-14T14:24:01.197Z,7.07
2018-03-14T14:26:29.075Z,8.57
2018-03-14T14:28:56.984Z,7.13
2018-03-14T14:31:24.900Z,7.07
2018-03-14T14:33:52.774Z,7.13
2018-03-14T14:36:20.661Z,9.80
2018-03-14T14:38:48.547Z,8.73
2018-03-14T14:41:16.640Z,11.00
2018-03-14T14:43:44.840Z,10.20
2018-03-14T14:46:12.734Z,7.50
2018-03-14T14:48:40.619Z,8.93
2018-03-14T14:51:08.504Z,8.07
2018-03-14T14:53:36.403Z,8.13
2018-03-14T14:56:04.480Z,7.47
2018-03-14T14:58:33.033Z,7.57
2018-03-14T15:01:00.917Z,7.30
2018-03-14T15:03:28.809Z,7.57
2018-03-14T15:05:57.552Z,7.00
2018-03-14T15:08:25.472Z,7.40
2018-03-14T15:10:53.372Z,7.37
2018-03-14T15:13:21.253Z,7.87
2018-03-14T15:15:49.151Z,7.13
2018-03-14T15:18:17.316Z,8.33
2018-03-14T15:20:45.205Z,6.60
2018-03-14T15:23:13.118Z,6.60
2018-03-14T15:25:40.991Z,6.73
2018-03-14T15:28:09.554Z,7.97
2018-03-14T15:30:37.415Z,6.60
2018-03-14T15:33:05.315Z,6.97
2018-03-14T15:35:33.191Z,7.63
2018-03-14T15:38:01.376Z,7.90
2018-03-14T15:40:29.548Z,7.73
2018-03-14T15:42:57.436Z,12.83
2018-03-14T15:45:25.327Z,8.50
2018-03-14T15:47:53.197Z,9.23
2018-03-14T15:50:21.254Z,10.33
2018-03-14T15:52:49.396Z,9.17
2018-03-14T15:55:17.306Z,9.20
2018-03-14T15:57:45.190Z,9.90
2018-03-14T16:00:13.057Z,9.87
2018-03-14T16:02:41.214Z,9.93
2018-03-14T16:05:09.102Z,10.33
2018-03-14T16:07:37.053Z,11.10
2018-03-14T16:10:05.176Z,10.90
2018-03-14T16:12:33.056Z,9.80
2018-03-14T16:15:00.997Z,9.60
2018-03-14T16:17:28.866Z,9.73
2018-03-14T16:19:57.057Z,8.97
2018-03-14T16:22:24.957Z,9.73
2018-03-14T16:24:52.914Z,8.53
2018-03-14T16:27:21.054Z,8.80
2018-03-14T16:29:49.172Z,8.33
2018-03-14T16:32:17.113Z,8.83
2018-03-14T16:34:44.997Z,11.57
2018-03-14T16:37:15.037Z,9.90
2018-03-14T16:39:44.032Z,9.73
2018-03-14T16:42:12.251Z,9.73
2018-03-14T16:44:40.136Z,10.17
2018-03-14T16:47:08.007Z,9.80
2018-03-14T16:49:36.156Z,11.37
2018-03-14T16:52:04.048Z,11.00
2018-03-14T16:54:32.071Z,10.80
2018-03-14T16:57:00.270Z,11.50
2018-03-14T16:59:28.204Z,12.70
2018-03-14T17:01:56.186Z,11.67
2018-03-14T17:04:24.075Z,11.93
2018-03-14T17:06:51.984Z,12.50
2018-03-14T17:09:19.872Z,12.47
2018-03-14T17:11:47.775Z,12.33
2018-03-14T17:14:27.133Z,13.10
2018-03-14T17:16:44.067Z,13.83
2018-03-14T17:19:11.952Z,13.23
2018-03-14T17:21:39.857Z,13.50
2018-03-14T17:24:07.767Z,13.93
2018-03-14T17:26:35.660Z,14.03
2018-03-14T17:29:03.564Z,13.53
2018-03-14T17:31:33.126Z,14.67
2018-03-14T17:34:01.216Z,15.57
2018-03-14T17:36:28.917Z,16.13
2018-03-14T17:38:56.963Z,17.73
2018-03-14T17:41:24.874Z,15.30
2018-03-14T17:43:52.760Z,15.37
2018-03-14T17:46:20.667Z,15.57
2018-03-14T17:48:48.571Z,17.93
2018-03-14T17:51:16.477Z,15.87
2018-03-14T17:53:44.355Z,19.20
2018-03-14T17:56:12.256Z,17.83
2018-03-14T17:58:40.164Z,16.60
2018-03-14T18:01:08.192Z,18.30
2018-03-14T18:03:36.099Z,17.27
2018-03-14T18:06:04.003Z,18.67
2018-03-14T18:08:31.915Z,18.13
2018-03-14T18:11:00.173Z,17.87
2018-03-14T18:13:28.069Z,16.90
2018-03-14T18:15:55.996Z,16.63
2018-03-14T18:18:23.891Z,16.43
2018-03-14T18:20:51.950Z,17.30
2018-03-14T18:23:19.828Z,19.20
2018-03-14T18:25:47.728Z,18.07
2018-03-14T18:28:15.623Z,19.63
2018-03-14T18:30:43.805Z,18.97
2018-03-14T18:33:11.749Z,18.47
2018-03-14T18:35:39.624Z,20.10
2018-03-14T18:38:07.532Z,21.77
2018-03-14T18:40:35.449Z,20.53
2018-03-14T18:43:03.680Z,19.37
2018-03-14T18:45:31.953Z,19.77
2018-03-14T18:47:59.852Z,22.80
2018-03-14T18:50:27.756Z,20.90
2018-03-14T18:52:55.643Z,21.60
2018-03-14T18:55:23.558Z,23.43
2018-03-14T18:57:51.440Z,22.03
2018-03-14T19:00:19.404Z,21.13
2018-03-14T19:02:47.300Z,22.53
2018-03-14T19:05:15.194Z,22.47
2018-03-14T19:07:43.101Z,21.77
2018-03-14T19:10:10.989Z,22.97
2018-03-14T19:12:39.204Z,22.97
2018-03-14T19:15:07.275Z,23.30
2018-03-14T19:17:35.158Z,25.77
2018-03-14T19:20:03.406Z,25.87
2018-03-14T19:22:31.314Z,25.00
2018-03-14T19:25:00.056Z,24.50
2018-03-14T19:27:27.979Z,25.13
2018-03-14T19:29:55.861Z,23.93
2018-03-14T19:32:23.767Z,26.83
2018-03-14T19:34:51.658Z,26.20
2018-03-14T19:37:19.628Z,27.87
2018-03-14T19:39:48.056Z,29.40
2018-03-14T19:42:15.944Z,26.03
2018-03-14T19:44:43.871Z,25.83
2018-03-14T19:47:11.755Z,30.67
2018-03-14T19:49:39.675Z,30.97
2018-03-14T19:52:07.552Z,31.37
2018-03-14T19:54:35.443Z,32.30
2018-03-14T19:57:03.478Z,31.43
2018-03-14T19:59:31.390Z,33.97
2018-03-14T20:01:59.282Z,32.33
2018-03-14T20:07:01.496Z,33.37
2018-03-14T20:09:29.499Z,32.73
2018-03-14T20:11:57.499Z,33.90
2018-03-14T20:14:25.664Z,35.37
2018-03-14T20:16:53.630Z,37.10
2018-03-14T20:19:21.584Z,39.23
2018-03-14T20:21:50.696Z,41.37
2018-03-14T20:24:18.588Z,34.93
2018-03-14T20:26:46.488Z,40.53
2018-03-14T20:29:14.392Z,37.13
2018-03-14T20:31:42.304Z,40.50
2018-03-14T20:34:10.191Z,39.60
2018-03-14T20:36:38.113Z,37.67
2018-03-14T20:39:05.688Z,43.77
2018-03-14T20:41:33.592Z,46.50
2018-03-14T20:44:01.505Z,46.27
2018-03-14T20:46:29.671Z,43.37
2018-03-14T20:48:57.839Z,43.93
2018-03-14T20:51:25.768Z,44.60
2018-03-14T20:53:53.644Z,50.93
2018-03-14T20:56:21.314Z,50.07
2018-03-14T20:58:49.287Z,48.97
2018-03-14T21:01:17.174Z,51.40
2018-03-14T21:03:45.099Z,53.50
2018-03-14T21:06:12.983Z,56.33
2018-03-14T21:08:40.900Z,45.57
2018-03-14T21:11:08.807Z,52.03
2018-03-14T21:13:36.707Z,51.77
2018-03-14T21:16:05.047Z,59.53
2018-03-14T21:18:32.922Z,53.43
2018-03-14T21:21:00.824Z,62.90
2018-03-14T21:23:28.731Z,64.40
2018-03-14T21:25:56.624Z,64.57
2018-03-14T21:28:24.556Z,72.20
2018-03-14T21:30:52.699Z,69.73
2018-03-14T21:33:20.672Z,70.63
2018-03-14T21:35:48.556Z,65.80
2018-03-14T21:38:16.606Z,68.87
2018-03-14T21:40:44.509Z,82.00
2018-03-14T21:43:12.400Z,76.63
2018-03-14T21:45:40.300Z,73.83
2018-03-14T21:48:08.236Z,85.17
2018-03-14T21:50:36.140Z,88.43
2018-03-14T21:53:04.328Z,90.50
2018-03-14T21:55:37.695Z,79.90
2018-03-14T21:58:05.592Z,76.13
2018-03-14T22:00:33.480Z,85.77
2018-03-14T22:03:01.379Z,84.43
2018-03-14T22:05:29.287Z,71.70
2018-03-14T22:07:57.176Z,72.03
2018-03-14T22:10:25.888Z,80.50
2018-03-14T22:12:53.767Z,78.40
2018-03-14T22:15:21.672Z,78.67
2018-03-14T22:17:49.648Z,77.67
2018-03-14T22:20:17.560Z,86.17
2018-03-14T22:22:45.787Z,83.33
2018-03-14T22:25:13.662Z,92.27
2018-03-14T22:27:41.815Z,82.30
2018-03-14T22:30:09.724Z,88.53
2018-03-14T22:32:37.861Z,125.03
2018-03-14T22:35:05.759Z,104.90
2018-03-14T22:37:33.675Z,109.90
2018-03-14T22:40:01.576Z,108.87
2018-03-14T22:42:29.477Z,104.50
2018-03-14T22:44:57.376Z,109.00
2018-03-14T22:47:25.306Z,98.87
2018-03-14T22:49:53.201Z,103.13
2018-03-14T22:52:21.088Z,108.80
2018-03-14T22:54:48.999Z,100.27
2018-03-14T22:57:17.425Z,106.97
2018-03-14T22:59:45.719Z,113.03
2018-03-14T23:02:13.622Z,109.70
2018-03-14T23:04:41.660Z,106.50
2018-03-14T23:07:09.598Z,94.37
2018-03-14T23:09:37.570Z,105.10
2018-03-14T23:12:05.772Z,108.23
2018-03-14T23:14:33.670Z,102.93
2018-03-14T23:17:01.575Z,111.77
2018-03-14T23:19:29.467Z,111.13
2018-03-14T23:21:57.368Z,97.57
2018-03-14T23:24:25.511Z,101.30
2018-03-14T23:26:53.608Z,88.90
2018-03-14T23:29:21.732Z,85.40
2018-03-14T23:31:49.616Z,84.77
2018-03-14T23:34:17.517Z,107.20
2018-03-14T23:36:45.764Z,106.70
2018-03-14T23:39:13.661Z,97.73
2018-03-14T23:41:41.599Z,107.83
2018-03-14T23:44:09.516Z,104.93
2018-03-14T23:46:37.452Z,107.77
2018-03-14T23:49:05.553Z,103.47
2018-03-14T23:51:33.447Z,115.03
2018-03-14T23:54:01.374Z,96.03
2018-03-14T23:56:29.281Z,103.77
2018-03-14T23:58:57.172Z,91.53
